Time;durP1;ratioP1;P1;durP2;ratioP2;P2;SDS_P1;SDS_P2;PMS_P1;PMS_P2;Temp;Humidity;BMP_temperature;BMP_pressure;BME280_temperature;BME280_humidity;BME280_pressure;Samples;Min_cycle;Max_cycle;Signal;HPM_P1;HPM_P2
2022/04/07 00:00:24;;;;;;;4.50;3.20;;;;;;;;;;5037112;28;20279;-75
2022/04/07 00:02:50;;;;;;;4.40;3.10;;;;;;;;;;5061900;28;20179;-76
2022/04/07 00:05:16;;;;;;;3.07;2.70;;;;;;;;;;5057652;28;20197;-76
2022/04/07 00:07:42;;;;;;;3.47;3.10;;;;;;;;;;5062934;28;20177;-75
2022/04/07 00:10:09;;;;;;;4.63;3.20;;;;;;;;;;5067649;28;20185;-75
2022/04/07 00:12:37;;;;;;;3.47;2.97;;;;;;;;;;5058775;28;20193;-76
2022/04/07 00:15:03;;;;;;;3.67;2.87;;;;;;;;;;5062935;28;20242;-76
2022/04/07 00:17:30;;;;;;;2.93;2.63;;;;;;;;;;5062989;28;20192;-76
2022/04/07 00:19:56;;;;;;;4.23;3.40;;;;;;;;;;5058917;28;20186;-76
2022/04/07 00:22:23;;;;;;;3.63;3.20;;;;;;;;;;5061881;28;20209;-76
2022/04/07 00:24:49;;;;;;;3.93;3.40;;;;;;;;;;5052902;28;20209;-77
2022/04/07 00:27:16;;;;;;;3.90;3.43;;;;;;;;;;5058988;28;20177;-78
2022/04/07 00:29:42;;;;;;;5.17;3.20;;;;;;;;;;5063572;28;20220;-78
2022/04/07 00:32:09;;;;;;;3.50;3.10;;;;;;;;;;5044793;28;20651;-78
2022/04/07 00:34:35;;;;;;;3.37;2.93;;;;;;;;;;5065913;28;20200;-78
2022/04/07 00:37:02;;;;;;;5.87;3.47;;;;;;;;;;5068359;28;20236;-78
2022/04/07 00:39:29;;;;;;;4.03;3.27;;;;;;;;;;5053299;28;20622;-78
2022/04/07 00:41:55;;;;;;;4.20;3.17;;;;;;;;;;5066181;28;20216;-78
2022/04/07 00:44:22;;;;;;;5.03;3.60;;;;;;;;;;5072534;28;20253;-78
2022/04/07 00:46:49;;;;;;;4.30;3.20;;;;;;;;;;5061744;28;20216;-77
2022/04/07 00:49:15;;;;;;;3.50;3.13;;;;;;;;;;5042897;28;20223;-78
2022/04/07 00:51:43;;;;;;;5.80;3.73;;;;;;;;;;5044565;28;20199;-75
2022/04/07 00:54:11;;;;;;;3.60;3.30;;;;;;;;;;5049312;28;20201;-76
2022/04/07 00:56:37;;;;;;;3.53;3.23;;;;;;;;;;5068393;28;20212;-75
2022/04/07 00:59:06;;;;;;;5.83;3.63;;;;;;;;;;5075306;28;20181;-76
2022/04/07 01:01:33;;;;;;;4.90;3.30;;;;;;;;;;5075608;28;20244;-75
2022/04/07 01:03:59;;;;;;;5.27;3.70;;;;;;;;;;5068236;28;20583;-76
2022/04/07 01:06:26;;;;;;;5.03;3.57;;;;;;;;;;5073042;28;20220;-76
2022/04/07 01:08:53;;;;;;;8.53;3.50;;;;;;;;;;5074709;28;20206;-75
2022/04/07 01:11:19;;;;;;;4.70;3.33;;;;;;;;;;5068124;28;20189;-75
2022/04/07 01:13:52;;;;;;;4.83;3.20;;;;;;;;;;5066510;28;20645;-75
2022/04/07 01:16:19;;;;;;;3.70;3.00;;;;;;;;;;5069933;28;20552;-75
2022/04/07 01:18:46;;;;;;;3.47;2.53;;;;;;;;;;5070662;28;20203;-76
2022/04/07 01:21:14;;;;;;;3.10;2.80;;;;;;;;;;5051616;28;20557;-75
2022/04/07 01:23:42;;;;;;;2.90;2.57;;;;;;;;;;5064778;28;20187;-75
2022/04/07 01:26:10;;;;;;;5.20;2.70;;;;;;;;;;5065894;28;20204;-76
2022/04/07 01:28:36;;;;;;;3.33;2.50;;;;;;;;;;5048781;28;20543;-76
2022/04/07 01:31:02;;;;;;;2.50;2.30;;;;;;;;;;5049905;28;20189;-76
2022/04/07 01:33:29;;;;;;;3.23;2.40;;;;;;;;;;5047143;28;20230;-76
2022/04/07 01:35:55;;;;;;;2.50;2.30;;;;;;;;;;5064321;28;20210;-75
2022/04/07 01:38:21;;;;;;;3.60;2.50;;;;;;;;;;5068735;28;20185;-75
2022/04/07 01:40:48;;;;;;;2.57;2.30;;;;;;;;;;5068296;28;20262;-76
2022/04/07 01:43:15;;;;;;;2.83;2.20;;;;;;;;;;5066853;28;20208;-76
2022/04/07 01:45:43;;;;;;;3.73;2.70;;;;;;;;;;5076084;28;20595;-76
2022/04/07 01:48:09;;;;;;;2.97;2.40;;;;;;;;;;5068432;28;20645;-76
2022/04/07 01:50:38;;;;;;;3.87;2.60;;;;;;;;;;5074070;28;20185;-76
2022/04/07 01:53:05;;;;;;;3.67;3.03;;;;;;;;;;5043762;28;20181;-76
2022/04/07 01:55:31;;;;;;;3.37;2.60;;;;;;;;;;5068433;28;20205;-75
2022/04/07 01:57:58;;;;;;;3.50;2.53;;;;;;;;;;5067456;28;20181;-75
2022/04/07 02:00:24;;;;;;;3.70;3.10;;;;;;;;;;5070295;28;20177;-75
2022/04/07 02:02:51;;;;;;;4.13;2.73;;;;;;;;;;5038701;28;20195;-76
2022/04/07 02:05:17;;;;;;;2.97;2.60;;;;;;;;;;5060644;28;20205;-76
2022/04/07 02:07:46;;;;;;;3.40;2.73;;;;;;;;;;5066697;28;20200;-75
2022/04/07 02:10:13;;;;;;;3.50;2.53;;;;;;;;;;5067694;28;20204;-75
2022/04/07 02:12:41;;;;;;;2.97;2.50;;;;;;;;;;5049763;28;20223;-76
2022/04/07 02:15:08;;;;;;;3.90;2.70;;;;;;;;;;5067585;28;20207;-76
2022/04/07 02:17:34;;;;;;;3.93;3.53;;;;;;;;;;5054853;28;20611;-75
2022/04/07 02:20:01;;;;;;;2.70;2.50;;;;;;;;;;5053588;28;20568;-75
2022/04/07 02:22:28;;;;;;;4.33;2.57;;;;;;;;;;5067617;28;20214;-75
2022/04/07 02:24:55;;;;;;;2.67;2.40;;;;;;;;;;5043676;28;20205;-75
2022/04/07 02:27:22;;;;;;;3.23;2.43;;;;;;;;;;5064338;28;20696;-75
2022/04/07 02:29:48;;;;;;;4.63;2.50;;;;;;;;;;5074757;28;20186;-76
2022/04/07 02:32:14;;;;;;;2.43;2.13;;;;;;;;;;5064985;28;20582;-75
2022/04/07 02:34:41;;;;;;;3.97;2.20;;;;;;;;;;5049317;28;20262;-76
2022/04/07 02:37:07;;;;;;;3.40;2.10;;;;;;;;;;5064929;28;20228;-75
2022/04/07 02:39:34;;;;;;;2.83;2.23;;;;;;;;;;5071643;28;20887;-75
2022/04/07 02:42:00;;;;;;;2.70;2.17;;;;;;;;;;5059853;28;20208;-75
2022/04/07 02:44:26;;;;;;;2.77;2.10;;;;;;;;;;5067510;28;20668;-75
2022/04/07 02:46:52;;;;;;;2.10;1.90;;;;;;;;;;5065985;28;20177;-75
2022/04/07 02:49:18;;;;;;;2.00;1.80;;;;;;;;;;5063771;28;20607;-75
2022/04/07 02:51:45;;;;;;;3.43;1.60;;;;;;;;;;5065444;28;20186;-75
2022/04/07 02:54:11;;;;;;;3.50;1.87;;;;;;;;;;5072981;28;20314;-76
2022/04/07 02:56:38;;;;;;;2.60;1.60;;;;;;;;;;5062556;28;20800;-76
2022/04/07 02:59:04;;;;;;;1.97;1.70;;;;;;;;;;5053321;28;20845;-76
2022/04/07 03:01:30;;;;;;;1.60;1.50;;;;;;;;;;5069007;28;20251;-76
2022/04/07 03:03:57;;;;;;;4.13;1.83;;;;;;;;;;5046352;28;20189;-76
2022/04/07 03:06:23;;;;;;;2.13;1.70;;;;;;;;;;5066386;28;20173;-76
2022/04/07 03:08:53;;;;;;;3.13;1.70;;;;;;;;;;5067744;28;20186;-76
2022/04/07 03:11:19;;;;;;;3.30;1.70;;;;;;;;;;5058680;28;20208;-76
2022/04/07 03:13:46;;;;;;;2.13;1.80;;;;;;;;;;5061382;28;20212;-76
2022/04/07 03:16:12;;;;;;;3.07;2.10;;;;;;;;;;5069965;28;20220;-76
2022/04/07 03:18:38;;;;;;;3.23;1.93;;;;;;;;;;5058742;28;20200;-76
2022/04/07 03:21:04;;;;;;;3.40;1.93;;;;;;;;;;5064089;28;20205;-76
2022/04/07 03:23:31;;;;;;;2.07;1.57;;;;;;;;;;5067673;28;20181;-76
2022/04/07 03:25:57;;;;;;;2.30;1.70;;;;;;;;;;5069580;28;20277;-76
2022/04/07 03:28:23;;;;;;;1.60;1.50;;;;;;;;;;5068510;28;20609;-76
2022/04/07 03:30:49;;;;;;;3.67;1.50;;;;;;;;;;5070906;28;20177;-76
2022/04/07 03:33:15;;;;;;;2.07;1.70;;;;;;;;;;5054166;28;20194;-76
2022/04/07 03:35:42;;;;;;;2.90;2.00;;;;;;;;;;5070421;28;20196;-76
2022/04/07 03:38:08;;;;;;;2.73;1.70;;;;;;;;;;5057550;28;20271;-76
2022/04/07 03:40:35;;;;;;;2.73;1.90;;;;;;;;;;5060911;28;20186;-76
2022/04/07 03:43:01;;;;;;;2.10;1.80;;;;;;;;;;5049902;28;20179;-76
2022/04/07 03:45:28;;;;;;;1.80;1.60;;;;;;;;;;5057946;28;20193;-76
2022/04/07 03:47:54;;;;;;;2.63;1.90;;;;;;;;;;5064184;28;20181;-76
2022/04/07 03:50:20;;;;;;;1.93;1.57;;;;;;;;;;5067416;28;20169;-76
2022/04/07 03:52:46;;;;;;;2.47;1.70;;;;;;;;;;5061361;28;20683;-76
2022/04/07 03:55:12;;;;;;;2.23;1.50;;;;;;;;;;5067918;28;20201;-76
2022/04/07 03:57:38;;;;;;;2.87;1.63;;;;;;;;;;5064789;28;20193;-76
2022/04/07 04:00:05;;;;;;;2.67;1.70;;;;;;;;;;5061772;28;20192;-76
2022/04/07 04:02:38;;;;;;;3.10;1.70;;;;;;;;;;5063454;28;20217;-76
2022/04/07 04:05:04;;;;;;;2.63;1.90;;;;;;;;;;5067048;28;20216;-76
2022/04/07 04:07:30;;;;;;;2.33;1.73;;;;;;;;;;5063572;28;20186;-76
2022/04/07 04:09:57;;;;;;;2.67;1.50;;;;;;;;;;5071865;28;20184;-76
2022/04/07 04:12:23;;;;;;;4.43;1.87;;;;;;;;;;5065539;28;20850;-76
2022/04/07 04:14:49;;;;;;;2.13;1.70;;;;;;;;;;5069524;28;20207;-76
2022/04/07 04:17:15;;;;;;;2.40;1.43;;;;;;;;;;5073429;28;20186;-76
2022/04/07 04:19:42;;;;;;;2.20;1.40;;;;;;;;;;5066516;28;20570;-76
2022/04/07 04:22:08;;;;;;;1.67;1.50;;;;;;;;;;5073205;28;20555;-76
2022/04/07 04:24:34;;;;;;;2.23;1.43;;;;;;;;;;5059957;28;20201;-76
2022/04/07 04:27:00;;;;;;;2.10;1.47;;;;;;;;;;5036349;28;20184;-76
2022/04/07 04:29:26;;;;;;;2.60;1.60;;;;;;;;;;5063985;28;20177;-76
2022/04/07 04:31:52;;;;;;;2.20;1.50;;;;;;;;;;5067037;28;20192;-76
2022/04/07 04:34:18;;;;;;;2.13;1.60;;;;;;;;;;5061823;28;20212;-78
2022/04/07 04:36:44;;;;;;;2.07;1.43;;;;;;;;;;5073025;28;20758;-76
2022/04/07 04:39:10;;;;;;;2.67;1.70;;;;;;;;;;5058271;28;20570;-76
2022/04/07 04:41:37;;;;;;;3.50;1.80;;;;;;;;;;5062406;28;20245;-76
2022/04/07 04:44:03;;;;;;;1.90;1.60;;;;;;;;;;5073655;28;20259;-76
2022/04/07 04:46:29;;;;;;;1.77;1.50;;;;;;;;;;5056128;28;20186;-76
2022/04/07 04:48:55;;;;;;;2.13;1.50;;;;;;;;;;5062800;28;20554;-76
2022/04/07 04:51:21;;;;;;;2.00;1.53;;;;;;;;;;5062091;28;20279;-76
2022/04/07 04:53:47;;;;;;;2.30;1.43;;;;;;;;;;5050349;28;20214;-76
2022/04/07 04:56:14;;;;;;;2.07;1.50;;;;;;;;;;5061652;28;20251;-76
2022/04/07 04:58:40;;;;;;;2.43;1.43;;;;;;;;;;5066573;28;20185;-76
2022/04/07 05:01:06;;;;;;;3.10;1.70;;;;;;;;;;5050328;28;20285;-76
2022/04/07 05:03:32;;;;;;;2.23;1.60;;;;;;;;;;5069273;28;20186;-76
2022/04/07 05:05:58;;;;;;;4.40;1.70;;;;;;;;;;5058705;28;20573;-76
2022/04/07 05:08:25;;;;;;;2.13;1.40;;;;;;;;;;5061298;28;20534;-76
2022/04/07 05:10:51;;;;;;;5.23;1.70;;;;;;;;;;5054640;28;20191;-79
2022/04/07 05:13:17;;;;;;;2.17;1.47;;;;;;;;;;5057071;28;20179;-77
2022/04/07 05:15:43;;;;;;;1.60;1.40;;;;;;;;;;5055834;28;20267;-76
2022/04/07 05:18:09;;;;;;;1.63;1.30;;;;;;;;;;5067278;28;20186;-76
2022/04/07 05:20:37;;;;;;;1.70;1.40;;;;;;;;;;5051826;28;20297;-78
2022/04/07 05:23:03;;;;;;;1.43;1.33;;;;;;;;;;5035746;28;20649;-80
2022/04/07 05:25:29;;;;;;;2.03;1.30;;;;;;;;;;5052167;28;20689;-78
2022/04/07 05:27:55;;;;;;;1.40;1.20;;;;;;;;;;5071848;28;20185;-78
2022/04/07 05:30:22;;;;;;;2.93;1.47;;;;;;;;;;5036020;28;20238;-78
2022/04/07 05:32:48;;;;;;;1.40;1.30;;;;;;;;;;5052513;28;20195;-78
2022/04/07 05:35:16;;;;;;;2.63;1.20;;;;;;;;;;5053827;28;20247;-78
2022/04/07 05:37:43;;;;;;;1.97;1.40;;;;;;;;;;5066832;28;20185;-77
2022/04/07 05:40:10;;;;;;;1.00;1.00;;;;;;;;;;5049043;28;20197;-78
2022/04/07 05:42:36;;;;;;;1.23;1.10;;;;;;;;;;5074163;28;20201;-81
2022/04/07 05:45:03;;;;;;;3.00;1.27;;;;;;;;;;5058097;28;20197;-80
2022/04/07 05:47:29;;;;;;;1.30;1.20;;;;;;;;;;5070673;28;20185;-76
2022/04/07 05:49:55;;;;;;;1.40;1.30;;;;;;;;;;5066883;28;20557;-76
2022/04/07 05:52:22;;;;;;;5.23;1.47;;;;;;;;;;5073775;28;20193;-75
2022/04/07 05:54:48;;;;;;;1.50;1.33;;;;;;;;;;5071166;28;20686;-75
2022/04/07 05:57:14;;;;;;;1.90;1.43;;;;;;;;;;5071190;28;20573;-76
2022/04/07 05:59:41;;;;;;;1.80;1.20;;;;;;;;;;5068696;28;20547;-78
2022/04/07 06:02:07;;;;;;;1.50;1.10;;;;;;;;;;5066773;28;20212;-79
2022/04/07 06:04:39;;;;;;;1.30;1.20;;;;;;;;;;5072605;28;20201;-79
2022/04/07 06:07:05;;;;;;;2.17;1.20;;;;;;;;;;5059009;28;20242;-78
2022/04/07 06:09:33;;;;;;;1.30;1.20;;;;;;;;;;5035467;28;20169;-79
2022/04/07 06:11:59;;;;;;;1.27;1.10;;;;;;;;;;5059650;28;20234;-78
2022/04/07 06:14:25;;;;;;;2.07;1.00;;;;;;;;;;5067190;28;20205;-78
2022/04/07 06:16:51;;;;;;;1.20;1.10;;;;;;;;;;5072320;28;20186;-78
2022/04/07 06:19:17;;;;;;;1.60;1.30;;;;;;;;;;5045282;28;20206;-79
2022/04/07 06:21:43;;;;;;;1.53;1.23;;;;;;;;;;5071094;28;20207;-79
2022/04/07 06:24:10;;;;;;;1.33;1.10;;;;;;;;;;5057948;28;20734;-80
2022/04/07 06:26:36;;;;;;;1.10;1.00;;;;;;;;;;5035139;28;20177;-79
2022/04/07 06:29:02;;;;;;;1.20;1.10;;;;;;;;;;5072323;28;20161;-79
2022/04/07 06:31:28;;;;;;;4.93;1.20;;;;;;;;;;5072593;28;20672;-79
2022/04/07 06:33:56;;;;;;;1.33;1.20;;;;;;;;;;5055177;28;20675;-79
2022/04/07 06:36:22;;;;;;;1.70;1.20;;;;;;;;;;5052792;28;20300;-79
2022/04/07 06:38:48;;;;;;;2.67;1.20;;;;;;;;;;5048244;28;20193;-78
2022/04/07 06:41:14;;;;;;;2.93;1.33;;;;;;;;;;5064121;28;20201;-78
2022/04/07 06:43:40;;;;;;;2.37;1.60;;;;;;;;;;5048731;28;20189;-79
2022/04/07 06:46:06;;;;;;;1.77;1.20;;;;;;;;;;5052301;28;20281;-78
2022/04/07 06:48:33;;;;;;;1.37;1.20;;;;;;;;;;5058171;28;20169;-78
2022/04/07 06:50:59;;;;;;;1.27;1.17;;;;;;;;;;5051266;28;20186;-78
2022/04/07 06:53:25;;;;;;;1.20;1.10;;;;;;;;;;5067370;28;20209;-78
2022/04/07 06:55:51;;;;;;;1.20;1.10;;;;;;;;;;5069315;28;20739;-78
2022/04/07 06:58:18;;;;;;;4.13;1.00;;;;;;;;;;5045646;28;20711;-79
2022/04/07 07:00:45;;;;;;;1.83;1.20;;;;;;;;;;5072715;28;20177;-77
2022/04/07 07:03:14;;;;;;;1.20;1.10;;;;;;;;;;5054337;28;20193;-78
2022/04/07 07:05:40;;;;;;;5.03;1.07;;;;;;;;;;5076314;28;20277;-78
2022/04/07 07:08:16;;;;;;;2.93;1.10;;;;;;;;;;5064992;28;20260;-79
2022/04/07 07:10:44;;;;;;;1.97;1.03;;;;;;;;;;5054318;28;20189;-78
2022/04/07 07:13:10;;;;;;;1.43;0.97;;;;;;;;;;5052549;28;20212;-79
2022/04/07 07:15:36;;;;;;;1.30;1.20;;;;;;;;;;5037451;28;20207;-79
2022/04/07 07:18:02;;;;;;;1.33;1.07;;;;;;;;;;5067997;28;20275;-79
2022/04/07 07:20:28;;;;;;;2.77;1.87;;;;;;;;;;5048078;28;20170;-76
2022/04/07 07:22:54;;;;;;;1.40;1.30;;;;;;;;;;5053177;28;20216;-77
2022/04/07 07:25:21;;;;;;;1.00;1.00;;;;;;;;;;5060122;28;20215;-78
2022/04/07 07:27:47;;;;;;;1.27;1.13;;;;;;;;;;5037388;28;20173;-77
2022/04/07 07:30:15;;;;;;;3.43;1.30;;;;;;;;;;5054500;28;20671;-78
2022/04/07 07:32:42;;;;;;;1.27;1.10;;;;;;;;;;5041735;28;20218;-78
2022/04/07 07:35:09;;;;;;;1.20;1.10;;;;;;;;;;5063127;28;20578;-78
2022/04/07 07:37:36;;;;;;;1.70;1.30;;;;;;;;;;5054742;28;20287;-78
2022/04/07 07:40:04;;;;;;;1.40;1.30;;;;;;;;;;5021480;28;20991;-78
2022/04/07 07:42:30;;;;;;;1.83;1.30;;;;;;;;;;5069251;28;20201;-78
2022/04/07 07:44:57;;;;;;;2.23;1.30;;;;;;;;;;5066227;28;20264;-78
2022/04/07 07:47:23;;;;;;;1.47;1.30;;;;;;;;;;5064953;28;20548;-78
2022/04/07 07:49:50;;;;;;;1.10;1.00;;;;;;;;;;5062440;28;20169;-79
2022/04/07 07:52:16;;;;;;;1.53;1.17;;;;;;;;;;5063071;28;20187;-78
2022/04/07 07:54:42;;;;;;;2.10;1.20;;;;;;;;;;5061739;28;20200;-79
2022/04/07 07:57:08;;;;;;;1.27;1.17;;;;;;;;;;5057709;28;20553;-79
2022/04/07 07:59:34;;;;;;;1.30;1.20;;;;;;;;;;5062709;28;20213;-79
2022/04/07 08:02:00;;;;;;;1.77;1.10;;;;;;;;;;5065348;28;20205;-78
2022/04/07 08:04:27;;;;;;;1.20;1.10;;;;;;;;;;5069195;28;20685;-78
2022/04/07 08:06:53;;;;;;;1.83;1.07;;;;;;;;;;5069492;28;20552;-78
2022/04/07 08:09:19;;;;;;;1.70;1.13;;;;;;;;;;5072362;28;20182;-78
2022/04/07 08:11:45;;;;;;;1.37;1.10;;;;;;;;;;5071607;28;20184;-78
2022/04/07 08:14:12;;;;;;;1.20;1.00;;;;;;;;;;5068190;28;20201;-78
2022/04/07 08:16:39;;;;;;;1.20;1.10;;;;;;;;;;5066695;28;20193;-78
2022/04/07 08:19:06;;;;;;;1.10;1.00;;;;;;;;;;5065837;28;20287;-78
2022/04/07 08:21:32;;;;;;;1.47;0.97;;;;;;;;;;5060807;28;20202;-78
2022/04/07 08:23:59;;;;;;;1.83;1.10;;;;;;;;;;5067460;28;20223;-78
2022/04/07 08:26:25;;;;;;;1.27;1.00;;;;;;;;;;5072187;28;20549;-78
2022/04/07 08:28:51;;;;;;;1.03;0.93;;;;;;;;;;5071747;28;20264;-78
2022/04/07 08:31:17;;;;;;;0.90;0.90;;;;;;;;;;5051427;28;20195;-78
2022/04/07 08:33:44;;;;;;;1.77;1.30;;;;;;;;;;5073864;28;20185;-78
2022/04/07 08:36:10;;;;;;;1.23;0.90;;;;;;;;;;5076103;28;20586;-78
2022/04/07 08:38:36;;;;;;;1.30;1.00;;;;;;;;;;5072399;28;20188;-78
2022/04/07 08:41:02;;;;;;;1.20;1.10;;;;;;;;;;5056001;28;20205;-78
2022/04/07 08:43:29;;;;;;;2.43;1.20;;;;;;;;;;5074185;28;20205;-78
2022/04/07 08:45:56;;;;;;;1.60;1.00;;;;;;;;;;5055897;28;20276;-78
2022/04/07 08:48:23;;;;;;;1.43;1.07;;;;;;;;;;5056957;28;20173;-78
2022/04/07 08:50:51;;;;;;;1.10;1.00;;;;;;;;;;5072139;28;20188;-78
2022/04/07 08:53:17;;;;;;;1.10;1.00;;;;;;;;;;5079180;28;20310;-78
2022/04/07 08:55:44;;;;;;;1.70;1.00;;;;;;;;;;5071113;28;20216;-79
2022/04/07 08:58:13;;;;;;;1.00;0.90;;;;;;;;;;5071525;28;20196;-78
2022/04/07 09:00:39;;;;;;;2.13;1.20;;;;;;;;;;5049901;28;20210;-79
2022/04/07 09:03:05;;;;;;;1.97;1.30;;;;;;;;;;5061808;28;20334;-78
2022/04/07 09:05:31;;;;;;;2.00;1.30;;;;;;;;;;5059750;28;20282;-78
2022/04/07 09:07:57;;;;;;;1.53;1.00;;;;;;;;;;5066652;28;20177;-79
2022/04/07 09:10:26;;;;;;;3.47;1.20;;;;;;;;;;5071630;28;20186;-78
2022/04/07 09:12:53;;;;;;;2.23;1.10;;;;;;;;;;5060161;28;20611;-79
2022/04/07 09:15:19;;;;;;;3.13;1.07;;;;;;;;;;5065026;28;20193;-78
2022/04/07 09:17:53;;;;;;;2.03;1.10;;;;;;;;;;5070943;28;20189;-78
2022/04/07 09:20:19;;;;;;;3.10;1.30;;;;;;;;;;5051096;28;20182;-79
2022/04/07 09:22:55;;;;;;;3.93;1.10;;;;;;;;;;5069247;28;20212;-78
2022/04/07 09:25:21;;;;;;;5.00;1.50;;;;;;;;;;5068438;28;20816;-78
2022/04/07 09:27:48;;;;;;;1.93;1.37;;;;;;;;;;5068333;28;20178;-78
2022/04/07 09:30:15;;;;;;;2.57;1.30;;;;;;;;;;5066370;28;20272;-78
2022/04/07 09:32:45;;;;;;;1.27;1.00;;;;;;;;;;5060773;28;20183;-78
2022/04/07 09:35:11;;;;;;;3.90;1.40;;;;;;;;;;5055730;28;20197;-80
2022/04/07 09:37:38;;;;;;;1.50;1.20;;;;;;;;;;5071814;28;20193;-78
2022/04/07 09:40:16;;;;;;;1.47;1.00;;;;;;;;;;5067750;28;20296;-79
2022/04/07 09:42:42;;;;;;;2.07;1.00;;;;;;;;;;5062191;28;20192;-78
2022/04/07 09:45:12;;;;;;;2.30;1.00;;;;;;;;;;5072059;28;20204;-78
2022/04/07 09:47:39;;;;;;;3.10;1.00;;;;;;;;;;5078740;28;20184;-80
2022/04/07 09:50:06;;;;;;;2.37;1.20;;;;;;;;;;5073507;28;20173;-78
2022/04/07 09:52:32;;;;;;;2.13;1.10;;;;;;;;;;5076909;28;20273;-78
2022/04/07 09:55:02;;;;;;;1.57;1.13;;;;;;;;;;5078144;28;20201;-78
2022/04/07 09:57:28;;;;;;;2.43;1.30;;;;;;;;;;5071490;28;20270;-79
2022/04/07 09:59:56;;;;;;;1.20;1.10;;;;;;;;;;5072021;28;20189;-77
2022/04/07 10:02:24;;;;;;;3.40;1.27;;;;;;;;;;5056241;28;20193;-78
2022/04/07 10:04:51;;;;;;;1.63;1.30;;;;;;;;;;5077671;28;20197;-78
2022/04/07 10:07:18;;;;;;;1.20;1.10;;;;;;;;;;5069025;28;20181;-78
2022/04/07 10:09:46;;;;;;;2.27;1.10;;;;;;;;;;5059516;28;20188;-78
2022/04/07 10:12:13;;;;;;;1.03;0.93;;;;;;;;;;5075099;28;20196;-79
2022/04/07 10:14:39;;;;;;;2.57;1.40;;;;;;;;;;5071079;28;20205;-80
2022/04/07 10:17:06;;;;;;;3.00;1.13;;;;;;;;;;5074994;28;20184;-78
2022/04/07 10:19:39;;;;;;;3.47;1.40;;;;;;;;;;5074430;28;20199;-78
2022/04/07 10:22:14;;;;;;;1.57;1.20;;;;;;;;;;5071027;28;20893;-78
2022/04/07 10:24:48;;;;;;;1.43;1.10;;;;;;;;;;5051194;28;20201;-78
2022/04/07 10:27:15;;;;;;;3.80;1.40;;;;;;;;;;5087806;28;20168;-78
2022/04/07 10:30:01;;;;;;;1.27;0.90;;;;;;;;;;5032929;28;20185;-77
2022/04/07 10:32:34;;;;;;;1.60;1.20;;;;;;;;;;5051293;28;20221;-78
2022/04/07 10:35:00;;;;;;;1.90;1.27;;;;;;;;;;5056971;28;20198;-78
2022/04/07 10:37:43;;;;;;;2.53;1.37;;;;;;;;;;5076146;28;20673;-78
2022/04/07 10:40:28;;;;;;;3.13;1.23;;;;;;;;;;5071860;28;20220;-78
2022/04/07 10:43:07;;;;;;;1.63;1.17;;;;;;;;;;5064235;28;20589;-77
2022/04/07 10:45:33;;;;;;;2.10;1.20;;;;;;;;;;5072144;28;20711;-77
2022/04/07 10:48:18;;;;;;;1.67;1.10;;;;;;;;;;5072100;28;20212;-77
2022/04/07 10:50:59;;;;;;;1.20;1.07;;;;;;;;;;5059113;28;20596;-77
2022/04/07 10:53:27;;;;;;;2.40;1.13;;;;;;;;;;5055974;28;20174;-77
2022/04/07 10:56:17;;;;;;;1.77;0.90;;;;;;;;;;5054780;28;20703;-78
2022/04/07 10:58:46;;;;;;;4.00;1.30;;;;;;;;;;5069375;28;20191;-78
2022/04/07 11:01:13;;;;;;;1.87;1.10;;;;;;;;;;5065369;28;20275;-78
2022/04/07 11:03:41;;;;;;;1.67;1.13;;;;;;;;;;5070800;28;20191;-78
2022/04/07 11:06:08;;;;;;;1.63;1.00;;;;;;;;;;5071949;28;20253;-78
2022/04/07 11:08:35;;;;;;;1.53;1.00;;;;;;;;;;5041708;28;20211;-78
2022/04/07 11:11:01;;;;;;;1.67;1.00;;;;;;;;;;5080367;28;20191;-78
2022/04/07 11:13:43;;;;;;;2.77;1.07;;;;;;;;;;5073505;28;20547;-82
2022/04/07 11:16:18;;;;;;;1.00;0.90;;;;;;;;;;5053165;28;20744;-78
2022/04/07 11:18:53;;;;;;;1.93;0.90;;;;;;;;;;5068249;28;20684;-78
2022/04/07 11:21:19;;;;;;;2.37;0.90;;;;;;;;;;5052759;28;20192;-78
2022/04/07 11:23:52;;;;;;;1.40;1.00;;;;;;;;;;5071399;28;20184;-78
2022/04/07 11:26:24;;;;;;;0.80;0.80;;;;;;;;;;5050196;28;20165;-78
2022/04/07 11:29:05;;;;;;;1.00;0.90;;;;;;;;;;5071345;28;20188;-78
2022/04/07 11:31:48;;;;;;;2.60;1.00;;;;;;;;;;5078340;28;20168;-78
2022/04/07 11:34:33;;;;;;;2.57;0.93;;;;;;;;;;5068599;28;20205;-78
2022/04/07 11:36:59;;;;;;;2.17;1.10;;;;;;;;;;5063890;28;20208;-78
2022/04/07 11:39:26;;;;;;;1.33;0.90;;;;;;;;;;5076978;28;20684;-78
2022/04/07 11:41:54;;;;;;;2.50;1.00;;;;;;;;;;5090910;28;20196;-78
2022/04/07 11:44:24;;;;;;;2.10;1.00;;;;;;;;;;5065853;28;20607;-79
2022/04/07 11:46:51;;;;;;;0.70;0.70;;;;;;;;;;5069290;28;20197;-78
2022/04/07 11:49:17;;;;;;;3.63;0.80;;;;;;;;;;5071716;28;20272;-78
2022/04/07 11:51:45;;;;;;;1.00;0.90;;;;;;;;;;5056734;28;20185;-78
2022/04/07 11:54:15;;;;;;;1.17;0.90;;;;;;;;;;5075367;28;20577;-78
2022/04/07 11:56:41;;;;;;;1.17;1.00;;;;;;;;;;5091739;28;20181;-78
2022/04/07 11:59:09;;;;;;;0.87;0.80;;;;;;;;;;5091989;28;20245;-78
2022/04/07 12:01:36;;;;;;;1.10;0.73;;;;;;;;;;5081941;28;20192;-78
2022/04/07 12:04:04;;;;;;;1.93;0.87;;;;;;;;;;5057399;28;20190;-78
2022/04/07 12:06:31;;;;;;;1.80;1.00;;;;;;;;;;5075605;28;20655;-78
2022/04/07 12:08:57;;;;;;;1.90;0.70;;;;;;;;;;5057554;28;20177;-78
2022/04/07 12:11:24;;;;;;;2.00;0.70;;;;;;;;;;5075605;28;20256;-78
2022/04/07 12:13:51;;;;;;;1.10;0.80;;;;;;;;;;5075556;28;20771;-78
2022/04/07 12:16:18;;;;;;;2.20;0.80;;;;;;;;;;5021227;28;20195;-78
2022/04/07 12:18:57;;;;;;;2.10;0.80;;;;;;;;;;5055165;28;20193;-78
2022/04/07 12:21:25;;;;;;;0.60;0.60;;;;;;;;;;5064663;28;20217;-78
2022/04/07 12:24:12;;;;;;;0.63;0.63;;;;;;;;;;5075221;28;20161;-78
2022/04/07 12:26:45;;;;;;;0.70;0.70;;;;;;;;;;5057083;28;20173;-78
2022/04/07 12:29:15;;;;;;;1.20;0.87;;;;;;;;;;5070069;28;20178;-78
2022/04/07 12:31:42;;;;;;;1.30;0.80;;;;;;;;;;5079621;28;20176;-79
2022/04/07 12:34:12;;;;;;;0.67;0.67;;;;;;;;;;5096522;28;20216;-79
2022/04/07 12:36:40;;;;;;;0.80;0.80;;;;;;;;;;5080592;28;20173;-79
2022/04/07 12:39:10;;;;;;;1.70;0.70;;;;;;;;;;5075168;28;20625;-79
2022/04/07 12:41:41;;;;;;;1.40;0.77;;;;;;;;;;5066430;28;20197;-79
2022/04/07 12:44:11;;;;;;;2.00;0.60;;;;;;;;;;5080622;28;20172;-79
2022/04/07 12:46:44;;;;;;;3.37;0.70;;;;;;;;;;5074834;28;20161;-79
2022/04/07 12:49:11;;;;;;;1.60;1.10;;;;;;;;;;5083059;28;20202;-79
2022/04/07 12:51:38;;;;;;;1.37;0.60;;;;;;;;;;5077990;28;20172;-79
2022/04/07 12:54:11;;;;;;;2.20;1.50;;;;;;;;;;5079038;28;20187;-78
2022/04/07 12:56:38;;;;;;;4.53;0.90;;;;;;;;;;5077227;28;20179;-78
2022/04/07 12:59:07;;;;;;;2.43;1.30;;;13.40;74.20;;;;;;5089867;28;20679;-79
2022/04/07 13:01:32;;;;;;;2.23;0.70;;;14.70;99.90;;;;;;5094513;28;20211;-78
2022/04/07 13:03:59;;;;;;;0.50;0.50;;;14.70;99.90;;;;;;5076866;28;20652;-78
2022/04/07 13:06:26;;;;;;;0.83;0.70;;;14.70;99.90;;;;;;5094659;28;20687;-79
2022/04/07 13:08:52;;;;;;;2.60;1.00;;;14.70;99.90;;;;;;5076325;28;20268;-78
2022/04/07 13:11:38;;;;;;;2.10;0.80;;;14.60;99.90;;;;;;5074027;28;20267;-78
2022/04/07 13:14:09;;;;;;;1.00;0.80;;;14.60;99.90;;;;;;5073092;28;20184;-78
2022/04/07 13:16:37;;;;;;;1.17;0.80;;;14.50;99.90;;;;;;5094552;28;20169;-79
2022/04/07 13:19:04;;;;;;;0.60;0.60;;;14.50;99.90;;;;;;5091783;28;20201;-78
2022/04/07 13:21:30;;;;;;;0.70;0.70;;;14.50;99.90;;;;;;5094401;28;20613;-78
2022/04/07 13:23:56;;;;;;;0.80;0.80;;;14.50;99.90;;;;;;5075415;28;20252;-78
2022/04/07 13:26:22;;;;;;;0.70;0.70;;;14.50;99.90;;;;;;5074635;28;20181;-79
2022/04/07 13:28:49;;;;;;;0.73;0.70;;;14.50;99.90;;;;;;5073905;28;20177;-78
2022/04/07 13:31:16;;;;;;;0.70;0.70;;;14.50;99.90;;;;;;5074147;28;20188;-78
2022/04/07 13:33:41;;;;;;;0.70;0.70;;;14.50;99.90;;;;;;5068207;28;20316;-78
2022/04/07 13:36:07;;;;;;;0.60;0.60;;;14.50;99.90;;;;;;5054100;28;20222;-79
2022/04/07 13:38:34;;;;;;;1.00;0.60;;;14.50;99.90;;;;;;5071912;28;20212;-78
2022/04/07 13:41:04;;;;;;;0.60;0.60;;;14.50;99.90;;;;;;5073840;28;20216;-78
2022/04/07 13:43:34;;;;;;;0.60;0.50;;;14.50;99.90;;;;;;5073182;28;20169;-79
2022/04/07 13:46:00;;;;;;;0.50;0.50;;;14.50;99.90;;;;;;5073751;28;20201;-79
2022/04/07 13:48:26;;;;;;;0.50;0.50;;;14.50;99.90;;;;;;5056084;28;20174;-79
2022/04/07 13:50:52;;;;;;;1.10;0.80;;;14.60;99.90;;;;;;5069318;28;20785;-79
2022/04/07 13:53:18;;;;;;;1.47;0.73;;;14.60;99.90;;;;;;5072963;28;20173;-78
2022/04/07 13:55:45;;;;;;;1.27;0.70;;;14.60;99.90;;;;;;5073382;28;20247;-79
2022/04/07 13:58:11;;;;;;;0.97;0.60;;;14.60;99.90;;;;;;5056130;28;20554;-79
2022/04/07 14:00:42;;;;;;;0.70;0.70;;;14.50;99.90;;;;;;5073839;28;20177;-79
2022/04/07 14:03:08;;;;;;;0.87;0.70;;;14.50;99.90;;;;;;5074331;28;20287;-79
2022/04/07 14:05:34;;;;;;;1.87;0.90;;;14.40;99.90;;;;;;5073246;28;20201;-79
2022/04/07 14:08:00;;;;;;;1.00;0.77;;;14.30;99.90;;;;;;5073266;28;20173;-79
2022/04/07 14:10:26;;;;;;;4.60;0.80;;;14.20;99.90;;;;;;5085454;28;20200;-79
2022/04/07 14:12:52;;;;;;;1.10;0.70;;;14.10;99.90;;;;;;5075357;28;20254;-78
2022/04/07 14:15:18;;;;;;;4.60;1.00;;;14.00;99.90;;;;;;5085368;28;20250;-80
2022/04/07 14:17:45;;;;;;;1.77;1.40;;;13.90;99.90;;;;;;5073148;28;20166;-79
2022/04/07 14:20:12;;;;;;;2.17;0.80;;;13.80;99.90;;;;;;5071540;28;20859;-79
2022/04/07 14:22:41;;;;;;;1.53;1.00;;;13.80;99.90;;;;;;5068423;28;20197;-79
2022/04/07 14:25:07;;;;;;;1.77;0.87;;;13.80;99.90;;;;;;5037494;28;20201;-79
2022/04/07 14:27:33;;;;;;;1.53;1.00;;;13.80;99.90;;;;;;5050316;28;20190;-79
2022/04/07 14:29:59;;;;;;;2.60;1.10;;;13.90;99.90;;;;;;5072741;28;20184;-79